Time;durP1;ratioP1;P1;durP2;ratioP2;P2;SDS_P1;SDS_P2;PMS_P1;PMS_P2;Temp;Humidity;BMP_temperature;BMP_pressure;BME280_temperature;BME280_humidity;BME280_pressure;Samples;Min_cycle;Max_cycle;Signal;HPM_P1;HPM_P2
2022/08/24 00:01:56;;;;;;;;;;;;;;;;;;5030316;28;20015;-75
2022/08/24 00:04:42;;;;;;;;;;;;;;;;;;5047585;28;19913;-76
2022/08/24 00:07:28;;;;;;;;;;;;;;;;;;5044179;28;20388;-77
2022/08/24 00:10:15;;;;;;;;;;;;;;;;;;5050155;28;19909;-77
2022/08/24 00:13:01;;;;;;;;;;;;;;;;;;5049793;28;19921;-77
2022/08/24 00:15:48;;;;;;;;;;;;;;;;;;5051478;28;19909;-77
2022/08/24 00:18:34;;;;;;;;;;;;;;;;;;5048858;28;19923;-76
2022/08/24 00:21:21;;;;;;;;;;;;;;;;;;5026183;28;19917;-76
2022/08/24 00:24:08;;;;;;;;;;;;;;;;;;5050282;28;19920;-77
2022/08/24 00:26:55;;;;;;;;;;;;;;;;;;5047176;28;19920;-75
2022/08/24 00:29:41;;;;;;;;;;;;;;;;;;5039667;28;19909;-77
2022/08/24 00:32:28;;;;;;;;;;;;;;;;;;5031211;28;20269;-76
2022/08/24 00:35:17;;;;;;;;;;;;;;;;;;5047197;28;19917;-78
2022/08/24 00:38:03;;;;;;;;;;;;;;;;;;5050340;28;19948;-77
2022/08/24 00:40:50;;;;;;;;;;;;;;;;;;5032223;28;20276;-76
2022/08/24 00:43:36;;;;;;;;;;;;;;;;;;5033427;28;20380;-77
2022/08/24 00:46:23;;;;;;;;;;;;;;;;;;5050353;28;19958;-78
2022/08/24 00:49:10;;;;;;;;;;;;;;;;;;5032886;28;19909;-77
2022/08/24 00:51:57;;;;;;;;;;;;;;;;;;5030735;28;19935;-76
2022/08/24 00:54:43;;;;;;;;;;;;;;;;;;5037309;28;19925;-75
2022/08/24 00:57:30;;;;;;;;;;;;;;;;;;5033965;28;19992;-76
2022/08/24 01:00:16;;;;;;;;;;;;;;;;;;5044988;28;19920;-77
2022/08/24 01:03:03;;;;;;;;;;;;;;;;;;5028230;28;19916;-76
2022/08/24 01:05:49;;;;;;;;;;;;;;;;;;5044264;28;19920;-77
2022/08/24 01:08:36;;;;;;;;;;;;;;;;;;5037133;28;19916;-76
2022/08/24 01:11:23;;;;;;;;;;;;;;;;;;5031034;28;19909;-77
2022/08/24 01:14:09;;;;;;;;;;;;;;;;;;5050203;28;20041;-76
2022/08/24 01:20:04;;;;;;;;;;;;;;;;;;5050220;28;19919;-76
2022/08/24 01:22:52;;;;;;;;;;;;;;;;;;5025807;28;19913;-76
2022/08/24 01:25:38;;;;;;;;;;;;;;;;;;5045467;28;19944;-77
2022/08/24 01:28:25;;;;;;;;;;;;;;;;;;5042438;28;19947;-76
2022/08/24 01:31:11;;;;;;;;;;;;;;;;;;5043137;28;20263;-77
2022/08/24 01:33:58;;;;;;;;;;;;;;;;;;5043704;28;19913;-76
2022/08/24 01:36:44;;;;;;;;;;;;;;;;;;5047837;28;19917;-80
2022/08/24 01:39:31;;;;;;;;;;;;;;;;;;5047104;28;19928;-75
2022/08/24 01:42:18;;;;;;;;;;;;;;;;;;5033666;28;20289;-76
2022/08/24 01:45:04;;;;;;;;;;;;;;;;;;5044998;28;20031;-77
2022/08/24 01:47:51;;;;;;;;;;;;;;;;;;5048350;28;19920;-77
2022/08/24 01:50:37;;;;;;;;;;;;;;;;;;5042967;28;19919;-78
2022/08/24 01:53:24;;;;;;;;;;;;;;;;;;5043850;28;19917;-74
2022/08/24 01:56:10;;;;;;;;;;;;;;;;;;5047738;28;19912;-77
2022/08/24 01:58:57;;;;;;;;;;;;;;;;;;5039535;28;20285;-77
2022/08/24 02:01:43;;;;;;;;;;;;;;;;;;5041074;28;19917;-76
2022/08/24 02:04:30;;;;;;;;;;;;;;;;;;5037873;28;19916;-76
2022/08/24 02:07:17;;;;;;;;;;;;;;;;;;5045252;28;19932;-77
2022/08/24 02:10:04;;;;;;;;;;;;;;;;;;5029702;28;19917;-76
2022/08/24 02:12:57;;;;;;;;;;;;;;;;;;5034308;28;19924;-75
2022/08/24 02:15:43;;;;;;;;;;;;;;;;;;5045976;28;20364;-76
2022/08/24 02:18:32;;;;;;;;;;;;;;;;;;5043599;28;19916;-76
2022/08/24 02:21:18;;;;;;;;;;;;;;;;;;5028028;28;19913;-75
2022/08/24 02:24:05;;;;;;;;;;;;;;;;;;5040410;28;19983;-75
2022/08/24 02:26:51;;;;;;;;;;;;;;;;;;5028595;28;19932;-77
2022/08/24 02:29:37;;;;;;;;;;;;;;;;;;5043645;28;19920;-75
2022/08/24 02:32:24;;;;;;;;;;;;;;;;;;5042054;28;19955;-75
2022/08/24 02:35:10;;;;;;;;;;;;;;;;;;5048326;28;19920;-76
2022/08/24 02:37:57;;;;;;;;;;;;;;;;;;5042537;28;19923;-77
2022/08/24 02:40:44;;;;;;;;;;;;;;;;;;5040576;28;19924;-76
2022/08/24 02:43:30;;;;;;;;;;;;;;;;;;5041879;28;19913;-76
2022/08/24 02:46:17;;;;;;;;;;;;;;;;;;5035851;28;19928;-76
2022/08/24 02:49:03;;;;;;;;;;;;;;;;;;5031181;28;19912;-75
2022/08/24 02:51:50;;;;;;;;;;;;;;;;;;5043002;28;20373;-76
2022/08/24 02:54:36;;;;;;;;;;;;;;;;;;5047920;28;19919;-76
2022/08/24 02:57:23;;;;;;;;;;;;;;;;;;5042208;28;20289;-76
2022/08/24 03:00:10;;;;;;;;;;;;;;;;;;5034238;28;19909;-75
2022/08/24 03:02:56;;;;;;;;;;;;;;;;;;5047272;28;19923;-78
2022/08/24 03:05:43;;;;;;;;;;;;;;;;;;5033877;28;19917;-76
2022/08/24 03:08:29;;;;;;;;;;;;;;;;;;5035503;28;19920;-75
2022/08/24 03:11:16;;;;;;;;;;;;;;;;;;5039709;28;19921;-77
2022/08/24 03:14:02;;;;;;;;;;;;;;;;;;5033006;28;19921;-77
2022/08/24 03:16:51;;;;;;;;;;;;;;;;;;5045712;28;19908;-77
2022/08/24 03:19:38;;;;;;;;;;;;;;;;;;5044560;28;20361;-78
2022/08/24 03:22:32;;;;;;;;;;;;;;;;;;5047245;28;19955;-78
2022/08/24 03:25:23;;;;;;;;;;;;;;;;;;5036276;28;20316;-77
2022/08/24 03:28:10;;;;;;;;;;;;;;;;;;5045604;28;19913;-75
2022/08/24 03:30:57;;;;;;;;;;;;;;;;;;5029449;28;19917;-77
2022/08/24 03:33:43;;;;;;;;;;;;;;;;;;5041033;28;20280;-76
2022/08/24 03:36:30;;;;;;;;;;;;;;;;;;5032519;28;19908;-78
2022/08/24 03:39:16;;;;;;;;;;;;;;;;;;5036053;28;19913;-78
2022/08/24 03:42:03;;;;;;;;;;;;;;;;;;5024807;28;19913;-76
2022/08/24 03:44:49;;;;;;;;;;;;;;;;;;5051965;28;19916;-77
2022/08/24 03:47:36;;;;;;;;;;;;;;;;;;5048164;28;19921;-76
2022/08/24 03:50:22;;;;;;;;;;;;;;;;;;5041568;28;19913;-77
2022/08/24 03:53:09;;;;;;;;;;;;;;;;;;5028516;28;19912;-76
2022/08/24 03:55:55;;;;;;;;;;;;;;;;;;5047883;28;19927;-75
2022/08/24 03:58:42;;;;;;;;;;;;;;;;;;5045667;28;19921;-75
2022/08/24 04:01:28;;;;;;;;;;;;;;;;;;5034270;28;19913;-75
2022/08/24 04:04:15;;;;;;;;;;;;;;;;;;5049170;28;19916;-75
2022/08/24 04:07:03;;;;;;;;;;;;;;;;;;5046321;28;19932;-75
2022/08/24 04:09:49;;;;;;;;;;;;;;;;;;5045990;28;19912;-76
2022/08/24 04:12:36;;;;;;;;;;;;;;;;;;5045197;28;19924;-75
2022/08/24 04:15:23;;;;;;;;;;;;;;;;;;5045013;28;19936;-75
2022/08/24 04:18:10;;;;;;;;;;;;;;;;;;5035146;28;19908;-77
2022/08/24 04:20:56;;;;;;;;;;;;;;;;;;5044578;28;19919;-76
2022/08/24 04:23:43;;;;;;;;;;;;;;;;;;5042658;28;20388;-77
2022/08/24 04:26:29;;;;;;;;;;;;;;;;;;5049991;28;19917;-78
2022/08/24 04:29:19;;;;;;;;;;;;;;;;;;5044983;28;19920;-79
2022/08/24 04:32:06;;;;;;;;;;;;;;;;;;5044615;28;19917;-77
2022/08/24 04:34:52;;;;;;;;;;;;;;;;;;5039981;28;20642;-77
2022/08/24 04:37:39;;;;;;;;;;;;;;;;;;5033698;28;20003;-77
2022/08/24 04:40:25;;;;;;;;;;;;;;;;;;5048907;28;19913;-79
2022/08/24 04:43:13;;;;;;;;;;;;;;;;;;5046918;28;19917;-79
2022/08/24 04:46:00;;;;;;;;;;;;;;;;;;5049365;28;19921;-77
2022/08/24 04:48:46;;;;;;;;;;;;;;;;;;5048493;28;19928;-76
2022/08/24 04:51:33;;;;;;;;;;;;;;;;;;5042103;28;19909;-79
2022/08/24 04:54:19;;;;;;;;;;;;;;;;;;5045049;28;19917;-77
2022/08/24 04:57:05;;;;;;;;;;;;;;;;;;5051144;28;19913;-78
2022/08/24 04:59:52;;;;;;;;;;;;;;;;;;5044447;28;19909;-78
2022/08/24 05:02:38;;;;;;;;;;;;;;;;;;5041225;28;19916;-77
2022/08/24 05:05:25;;;;;;;;;;;;;;;;;;5049817;28;19913;-78
2022/08/24 05:08:11;;;;;;;;;;;;;;;;;;5048117;28;19917;-78
2022/08/24 05:10:58;;;;;;;;;;;;;;;;;;5043385;28;19915;-77
2022/08/24 05:13:44;;;;;;;;;;;;;;;;;;5043719;28;20281;-76
2022/08/24 05:16:33;;;;;;;;;;;;;;;;;;5041243;28;19923;-77
2022/08/24 05:19:20;;;;;;;;;;;;;;;;;;5032117;28;20027;-78
2022/08/24 05:22:06;;;;;;;;;;;;;;;;;;5038260;28;19924;-78
2022/08/24 05:24:53;;;;;;;;;;;;;;;;;;5047839;28;19942;-77
2022/08/24 05:27:40;;;;;;;;;;;;;;;;;;5043593;28;19917;-76
2022/08/24 05:30:26;;;;;;;;;;;;;;;;;;5042000;28;19909;-77
2022/08/24 05:33:13;;;;;;;;;;;;;;;;;;5039215;28;19932;-76
2022/08/24 05:36:00;;;;;;;;;;;;;;;;;;5030454;28;19912;-77
2022/08/24 05:38:46;;;;;;;;;;;;;;;;;;5033727;28;19917;-76
2022/08/24 05:41:33;;;;;;;;;;;;;;;;;;5038653;28;19924;-77
2022/08/24 05:44:20;;;;;;;;;;;;;;;;;;5034042;28;19943;-75
2022/08/24 05:47:06;;;;;;;;;;;;;;;;;;5048243;28;20423;-75
2022/08/24 05:49:53;;;;;;;;;;;;;;;;;;5047348;28;19913;-77
2022/08/24 05:52:39;;;;;;;;;;;;;;;;;;5032876;28;19916;-77
2022/08/24 05:55:25;;;;;;;;;;;;;;;;;;5047242;28;20419;-77
2022/08/24 05:58:12;;;;;;;;;;;;;;;;;;5040067;28;19924;-76
2022/08/24 06:00:58;;;;;;;;;;;;;;;;;;5041044;28;20408;-76
2022/08/24 06:03:45;;;;;;;;;;;;;;;;;;5046897;28;19924;-76
2022/08/24 06:06:32;;;;;;;;;;;;;;;;;;5035828;28;19917;-77
2022/08/24 06:09:18;;;;;;;;;;;;;;;;;;5027557;28;19916;-77
2022/08/24 06:12:05;;;;;;;;;;;;;;;;;;5020735;28;19932;-77
2022/08/24 06:14:52;;;;;;;;;;;;;;;;;;5044388;28;19923;-77
2022/08/24 06:17:38;;;;;;;;;;;;;;;;;;5037834;28;20441;-77
2022/08/24 06:20:24;;;;;;;;;;;;;;;;;;5041452;28;19917;-76
2022/08/24 06:23:11;;;;;;;;;;;;;;;;;;5045780;28;19913;-76
2022/08/24 06:29:03;;;;;;;;;;;;;;;;;;5044830;28;19916;-77
2022/08/24 06:31:50;;;;;;;;;;;;;;;;;;5043732;28;19919;-77
2022/08/24 06:34:38;;;;;;;;;;;;;;;;;;5044728;28;19909;-75
2022/08/24 06:37:26;;;;;;;;;;;;;;;;;;5045633;28;19925;-76
2022/08/24 06:40:12;;;;;;;;;;;;;;;;;;5029644;28;20751;-77
2022/08/24 06:42:59;;;;;;;;;;;;;;;;;;5045570;28;19917;-78
2022/08/24 06:45:46;;;;;;;;;;;;;;;;;;5042014;28;19929;-81
2022/08/24 06:48:32;;;;;;;;;;;;;;;;;;5025310;28;19915;-76
2022/08/24 06:51:19;;;;;;;;;;;;;;;;;;5032193;28;19912;-77
2022/08/24 06:54:05;;;;;;;;;;;;;;;;;;5034515;28;19943;-79
2022/08/24 06:56:52;;;;;;;;;;;;;;;;;;5040978;28;20285;-78
2022/08/24 06:59:39;;;;;;;;;;;;;;;;;;5023949;28;19912;-77
2022/08/24 07:02:25;;;;;;;;;;;;;;;;;;5047165;28;19955;-77
2022/08/24 07:05:12;;;;;;;;;;;;;;;;;;5028364;28;19946;-77
2022/08/24 07:07:58;;;;;;;;;;;;;;;;;;5047639;28;19920;-77
2022/08/24 07:10:45;;;;;;;;;;;;;;;;;;5038257;28;20395;-78
2022/08/24 07:13:31;;;;;;;;;;;;;;;;;;5032632;28;19932;-78
2022/08/24 07:16:18;;;;;;;;;;;;;;;;;;5034928;28;19917;-77
2022/08/24 07:19:04;;;;;;;;;;;;;;;;;;5030658;28;20403;-78
2022/08/24 07:21:52;;;;;;;;;;;;;;;;;;5035313;28;19917;-77
2022/08/24 07:24:38;;;;;;;;;;;;;;;;;;5051201;28;19909;-79
2022/08/24 07:27:25;;;;;;;;;;;;;;;;;;5033022;28;19931;-78
2022/08/24 07:30:11;;;;;;;;;;;;;;;;;;5050294;28;19917;-78
2022/08/24 07:32:58;;;;;;;;;;;;;;;;;;5033987;28;19923;-77
2022/08/24 07:35:44;;;;;;;;;;;;;;;;;;5053361;28;20285;-76
2022/08/24 07:38:31;;;;;;;;;;;;;;;;;;5043143;28;19919;-78
2022/08/24 07:41:17;;;;;;;;;;;;;;;;;;5050144;28;20347;-78
2022/08/24 07:44:04;;;;;;;;;;;;;;;;;;5047158;28;19909;-78
2022/08/24 07:46:51;;;;;;;;;;;;;;;;;;5044444;28;19946;-77
2022/08/24 07:49:37;;;;;;;;;;;;;;;;;;5047203;28;20553;-77
2022/08/24 07:52:24;;;;;;;;;;;;;;;;;;5050229;28;19943;-77
2022/08/24 07:55:10;;;;;;;;;;;;;;;;;;5046505;28;19924;-78
2022/08/24 07:57:58;;;;;;;;;;;;;;;;;;5046260;28;19913;-78
2022/08/24 08:00:44;;;;;;;;;;;;;;;;;;5047785;28;19913;-77
2022/08/24 08:03:32;;;;;;;;;;;;;;;;;;5046906;28;19923;-78
2022/08/24 08:06:19;;;;;;;;;;;;;;;;;;5044131;28;19917;-78
2022/08/24 08:09:05;;;;;;;;;;;;;;;;;;5036752;28;19955;-78
2022/08/24 08:11:52;;;;;;;;;;;;;;;;;;5052615;28;19920;-78
2022/08/24 08:14:38;;;;;;;;;;;;;;;;;;5041014;28;20427;-77
2022/08/24 08:17:25;;;;;;;;;;;;;;;;;;5049195;28;19909;-78
2022/08/24 08:20:11;;;;;;;;;;;;;;;;;;5040621;28;19913;-78
2022/08/24 08:26:03;;;;;;;;;;;;;;;;;;5043350;28;20580;-78
2022/08/24 08:28:49;;;;;;;;;;;;;;;;;;5044388;28;19916;-78
2022/08/24 08:31:36;;;;;;;;;;;;;;;;;;5038853;28;20280;-78
2022/08/24 08:34:23;;;;;;;;;;;;;;;;;;5046391;28;19936;-78
2022/08/24 08:37:09;;;;;;;;;;;;;;;;;;5046095;28;19917;-78
2022/08/24 08:39:56;;;;;;;;;;;;;;;;;;5040291;28;19920;-77
2022/08/24 08:42:43;;;;;;;;;;;;;;;;;;5047287;28;19917;-78
2022/08/24 08:45:30;;;;;;;;;;;;;;;;;;5041589;28;20383;-77
2022/08/24 08:48:17;;;;;;;;;;;;;;;;;;5051033;28;19916;-77
2022/08/24 08:51:03;;;;;;;;;;;;;;;;;;5049885;28;19913;-77
2022/08/24 08:53:50;;;;;;;;;;;;;;;;;;5048401;28;20600;-78
2022/08/24 08:56:36;;;;;;;;;;;;;;;;;;5031778;28;19923;-78
2022/08/24 08:59:23;;;;;;;;;;;;;;;;;;5046532;28;20281;-78
2022/08/24 09:02:09;;;;;;;;;;;;;;;;;;5049989;28;19909;-78
2022/08/24 09:04:56;;;;;;;;;;;;;;;;;;5048545;28;19917;-78
2022/08/24 09:07:42;;;;;;;;;;;;;;;;;;5046168;28;19963;-78
2022/08/24 09:10:29;;;;;;;;;;;;;;;;;;5050708;28;19921;-78
2022/08/24 09:13:15;;;;;;;;;;;;;;;;;;5048588;28;19925;-78
2022/08/24 09:16:02;;;;;;;;;;;;;;;;;;5037741;28;20278;-78
2022/08/24 09:18:48;;;;;;;;;;;;;;;;;;5050186;28;19919;-79
2022/08/24 09:21:35;;;;;;;;;;;;;;;;;;5047567;28;19913;-77
2022/08/24 09:24:21;;;;;;;;;;;;;;;;;;5050702;28;19919;-78
2022/08/24 09:27:08;;;;;;;;;;;;;;;;;;5040562;28;19921;-77
2022/08/24 09:29:54;;;;;;;;;;;;;;;;;;5046228;28;19913;-77
2022/08/24 09:32:40;;;;;;;;;;;;;;;;;;5037847;28;20507;-79
2022/08/24 09:35:27;;;;;;;;;;;;;;;;;;5035838;28;19916;-78
2022/08/24 09:38:13;;;;;;;;;;;;;;;;;;5051158;28;20265;-79
2022/08/24 09:41:00;;;;;;;;;;;;;;;;;;5047525;28;19913;-79
2022/08/24 09:43:46;;;;;;;;;;;;;;;;;;5051486;28;19913;-78
2022/08/24 09:46:33;;;;;;;;;;;;;;;;;;5034951;28;19924;-76
2022/08/24 09:49:19;;;;;;;;;;;;;;;;;;5048917;28;19932;-77
2022/08/24 09:52:06;;;;;;;;;;;;;;;;;;5047419;28;19912;-78
2022/08/24 09:54:52;;;;;;;;;;;;;;;;;;5041680;28;20383;-78
2022/08/24 09:57:39;;;;;;;;;;;;;;;;;;5047511;28;20380;-78
2022/08/24 10:00:26;;;;;;;;;;;;;;;;;;5039695;28;19917;-77
2022/08/24 10:03:12;;;;;;;;;;;;;;;;;;5044249;28;19909;-78
2022/08/24 10:05:59;;;;;;;;;;;;;;;;;;5050498;28;19920;-77
2022/08/24 10:08:46;;;;;;;;;;;;;;;;;;5047238;28;19917;-78
2022/08/24 10:11:32;;;;;;;;;;;;;;;;;;5038344;28;19919;-78
2022/08/24 10:14:18;;;;;;;;;;;;;;;;;;5044128;28;20407;-78
2022/08/24 10:17:05;;;;;;;;;;;;;;;;;;5038423;28;19920;-77
2022/08/24 10:19:51;;;;;;;;;;;;;;;;;;5026087;28;19909;-78
2022/08/24 10:22:38;;;;;;;;;;;;;;;;;;5048103;28;20402;-77
2022/08/24 10:25:24;;;;;;;;;;;;;;;;;;5039045;28;19936;-78
2022/08/24 10:28:11;;;;;;;;;;;;;;;;;;5047566;28;19928;-77
2022/08/24 10:30:57;;;;;;;;;;;;;;;;;;5046982;28;20281;-77
2022/08/24 10:33:44;;;;;;;;;;;;;;;;;;5049198;28;19913;-77
2022/08/24 10:36:30;;;;;;;;;;;;;;;;;;5048041;28;20293;-79
2022/08/24 10:45:27;;;;;;;;;;;;;;;;;;5038086;28;19909;-78
2022/08/24 10:48:14;;;;;;;;;;;;;;;;;;5045991;28;19963;-79
2022/08/24 10:51:00;;;;;;;;;;;;;;;;;;5040328;28;19909;-77
2022/08/24 10:53:47;;;;;;;;;;;;;;;;;;5019351;28;19916;-77
2022/08/24 10:56:34;;;;;;;;;;;;;;;;;;5043609;28;20398;-76
2022/08/24 10:59:21;;;;;;;;;;;;;;;;;;5044739;28;20281;-77
2022/08/24 11:02:08;;;;;;;;;;;;;;;;;;5045182;28;19929;-77
2022/08/24 11:04:54;;;;;;;;;;;;;;;;;;5043673;28;19909;-77
2022/08/24 11:07:40;;;;;;;;;;;;;;;;;;5056185;28;19925;-77
2022/08/24 11:10:27;;;;;;;;;;;;;;;;;;5065646;28;19909;-77
2022/08/24 11:13:14;;;;;;;;;;;;;;;;;;5054991;28;19909;-77
2022/08/24 11:16:00;;;;;;;;;;;;;;;;;;5060740;28;20292;-77
2022/08/24 11:18:47;;;;;;;;;;;;;;;;;;5054123;28;19917;-78
2022/08/24 11:21:33;;;;;;;;;;;;;;;;;;5046186;28;19912;-78
2022/08/24 11:24:20;;;;;;;;;;;;;;;;;;5036614;28;20330;-76
2022/08/24 11:27:06;;;;;;;;;;;;;;;;;;5025046;28;19921;-77
2022/08/24 11:29:53;;;;;;;;;;;;;;;;;;5035488;28;19909;-77
2022/08/24 11:32:40;;;;;;;;;;;;;;;;;;5044836;28;19964;-77
2022/08/24 11:35:26;;;;;;;;;;;;;;;;;;5042954;28;19913;-77
2022/08/24 11:38:13;;;;;;;;;;;;;;;;;;5044377;28;19917;-77
2022/08/24 11:40:59;;;;;;;;;;;;;;;;;;5053525;28;19912;-77
2022/08/24 11:43:46;;;;;;;;;;;;;;;;;;5051326;28;19920;-78
2022/08/24 11:46:32;;;;;;;;;;;;;;;;;;5039581;28;19913;-77
2022/08/24 11:49:21;;;;;;;;;;;;;;;;;;5043617;28;19913;-78
2022/08/24 11:52:08;;;;;;;;;;;;;;;;;;5039626;28;20358;-78
2022/08/24 11:54:54;;;;;;;;;;;;;;;;;;5046424;28;19917;-78
2022/08/24 11:57:41;;;;;;;;;;;;;;;;;;5046499;28;19935;-76
2022/08/24 12:00:29;;;;;;;;;;;;;;;;;;5049995;28;19921;-78
2022/08/24 12:03:15;;;;;;;;;;;;;;;;;;5032910;28;20403;-76
2022/08/24 12:06:02;;;;;;;;;;;;;;;;;;5050797;28;19913;-76
2022/08/24 12:08:48;;;;;;;;;;;;;;;;;;5025064;28;19917;-77
2022/08/24 12:11:34;;;;;;;;;;;;;;;;;;5050397;28;19913;-77
2022/08/24 12:14:21;;;;;;;;;;;;;;;;;;5051838;28;19925;-77
2022/08/24 12:17:07;;;;;;;;;;;;;;;;;;5048896;28;19909;-76
2022/08/24 12:19:54;;;;;;;;;;;;;;;;;;5046359;28;20003;-77
2022/08/24 12:22:40;;;;;;;;;;;;;;;;;;5041596;28;20321;-77
2022/08/24 12:28:32;;;;;;;;;;;;;;;;;;5043770;28;20377;-77
2022/08/24 12:31:19;;;;;;;;;;;;;;;;;;5032772;28;19909;-78
2022/08/24 12:34:07;;;;;;;;;;;;;;;;;;5048145;28;19909;-77
2022/08/24 12:36:53;;;;;;;;;;;;;;;;;;5028245;28;20452;-76
2022/08/24 12:39:40;;;;;;;;;;;;;;;;;;5033540;28;19917;-77
2022/08/24 12:42:26;;;;;;;;;;;;;;;;;;5044082;28;19917;-76
2022/08/24 12:45:13;;;;;;;;;;;;;;;;;;5030401;28;20369;-77
2022/08/24 12:47:59;;;;;;;;;;;;;;;;;;5030479;28;19928;-77
2022/08/24 12:50:46;;;;;;;;;;;;;;;;;;5033393;28;19917;-77
2022/08/24 12:53:32;;;;;;;;;;;;;;;;;;5045357;28;19913;-77
2022/08/24 12:56:19;;;;;;;;;;;;;;;;;;5033062;28;19919;-78
2022/08/24 12:59:05;;;;;;;;;;;;;;;;;;5032498;28;19909;-77
2022/08/24 13:01:52;;;;;;;;;;;;;;;;;;5043862;28;19909;-77
2022/08/24 13:04:39;;;;;;;;;;;;;;;;;;5047410;28;19912;-76
2022/08/24 13:07:26;;;;;;;;;;;;;;;;;;5045568;28;19925;-77
2022/08/24 13:10:13;;;;;;;;;;;;;;;;;;5034174;28;19920;-77
2022/08/24 13:12:59;;;;;;;;;;;;;;;;;;5026518;28;20396;-76
2022/08/24 13:15:46;;;;;;;;;;;;;;;;;;5030638;28;19913;-77
2022/08/24 13:18:32;;;;;;;;;;;;;;;;;;5050554;28;19920;-76
2022/08/24 13:21:21;;;;;;;;;;;;;;;;;;5031298;28;20179;-78
2022/08/24 13:24:07;;;;;;;;;;;;;;;;;;5047239;28;19913;-77
2022/08/24 13:26:54;;;;;;;;;;;;;;;;;;5045842;28;19920;-76
2022/08/24 13:29:40;;;;;;;;;;;;;;;;;;5029057;28;19923;-77
2022/08/24 13:32:27;;;;;;;;;;;;;;;;;;5031116;28;19926;-76
2022/08/24 13:35:14;;;;;;;;;;;;;;;;;;5050692;28;19908;-77
2022/08/24 13:38:00;;;;;;;;;;;;;;;;;;5045356;28;19917;-77
2022/08/24 13:40:46;;;;;;;;;;;;;;;;;;5046205;28;19913;-77
2022/08/24 13:43:33;;;;;;;;;;;;;;;;;;5042855;28;19915;-78
2022/08/24 13:46:19;;;;;;;;;;;;;;;;;;5043524;28;19925;-78
2022/08/24 13:49:06;;;;;;;;;;;;;;;;;;5043413;28;19916;-77
2022/08/24 13:51:53;;;;;;;;;;;;;;;;;;5031104;28;20391;-76
2022/08/24 13:54:39;;;;;;;;;;;;;;;;;;5043932;28;19916;-77
2022/08/24 13:57:26;;;;;;;;;;;;;;;;;;5044263;28;19929;-77
2022/08/24 14:00:12;;;;;;;;;;;;;;;;;;5045243;28;19920;-77
2022/08/24 14:02:59;;;;;;;;;;;;;;;;;;5045237;28;19920;-78
2022/08/24 14:05:45;;;;;;;;;;;;;;;;;;5032152;28;19916;-77
2022/08/24 14:08:32;;;;;;;;;;;;;;;;;;5042228;28;19920;-77
2022/08/24 14:11:19;;;;;;;;;;;;;;;;;;5045466;28;19916;-78
2022/08/24 14:14:05;;;;;;;;;;;;;;;;;;5045254;28;19921;-77
2022/08/24 14:19:57;;;;;;;;;;;;;;;;;;5045189;28;19913;-78
2022/08/24 14:22:44;;;;;;;;;;;;;;;;;;5030595;28;19920;-77
2022/08/24 14:25:32;;;;;;;;;;;;;;;;;;5045272;28;19936;-77
2022/08/24 14:28:19;;;;;;;;;;;;;;;;;;5030985;28;19916;-78
2022/08/24 14:31:05;;;;;;;;;;;;;;;;;;5044611;28;19912;-78
2022/08/24 14:33:51;;;;;;;;;;;;;;;;;;5050215;28;20002;-78
2022/08/24 14:36:38;;;;;;;;;;;;;;;;;;5031997;28;19924;-77
2022/08/24 14:39:24;;;;;;;;;;;;;;;;;;5033280;28;19908;-77
2022/08/24 14:42:11;;;;;;;;;;;;;;;;;;5024501;28;19916;-79
2022/08/24 14:44:57;;;;;;;;;;;;;;;;;;5045748;28;20588;-78
2022/08/24 14:47:44;;;;;;;;;;;;;;;;;;5030318;28;19928;-78
2022/08/24 14:50:30;;;;;;;;;;;;;;;;;;5031069;28;19917;-78
2022/08/24 14:53:17;;;;;;;;;;;;;;;;;;5045643;28;19924;-79
2022/08/24 14:56:04;;;;;;;;;;;;;;;;;;5048720;28;20365;-78
2022/08/24 14:58:50;;;;;;;;;;;;;;;;;;5041254;28;19913;-79
2022/08/24 15:01:37;;;;;;;;;;;;;;;;;;5028812;28;19927;-81
2022/08/24 15:04:24;;;;;;;;;;;;;;;;;;5047089;28;19920;-78
2022/08/24 15:07:11;;;;;;;;;;;;;;;;;;5030918;28;19931;-79
2022/08/24 15:09:57;;;;;;;;;;;;;;;;;;5031606;28;19916;-79
2022/08/24 15:12:44;;;;;;;;;;;;;;;;;;5028582;28;19920;-78
2022/08/24 15:15:30;;;;;;;;;;;;;;;;;;5027990;28;20369;-78
2022/08/24 15:18:17;;;;;;;;;;;;;;;;;;5028422;28;19917;-78
2022/08/24 15:21:05;;;;;;;;;;;;;;;;;;5041030;28;19920;-79
2022/08/24 15:23:51;;;;;;;;;;;;;;;;;;5030386;28;19977;-79
2022/08/24 15:26:38;;;;;;;;;;;;;;;;;;5032092;28;19923;-79
2022/08/24 15:29:24;;;;;;;;;;;;;;;;;;5026815;28;19928;-79
2022/08/24 15:32:11;;;;;;;;;;;;;;;;;;5037620;28;19932;-81
2022/08/24 15:34:57;;;;;;;;;;;;;;;;;;5050288;28;19923;-82
2022/08/24 15:37:43;;;;;;;;;;;;;;;;;;5037350;28;20379;-82
2022/08/24 15:40:30;;;;;;;;;;;;;;;;;;5037553;28;19912;-80
2022/08/24 15:43:17;;;;;;;;;;;;;;;;;;5054632;28;19919;-80
2022/08/24 15:46:03;;;;;;;;;;;;;;;;;;5035076;28;20359;-81
2022/08/24 15:48:50;;;;;;;;;;;;;;;;;;5036998;28;19924;-80
2022/08/24 15:51:36;;;;;;;;;;;;;;;;;;5031461;28;19916;-80
2022/08/24 15:54:24;;;;;;;;;;;;;;;;;;5051162;28;19979;-81
2022/08/24 15:57:10;;;;;;;;;;;;;;;;;;5033163;28;19913;-82
2022/08/24 15:59:57;;;;;;;;;;;;;;;;;;5031072;28;19917;-81
2022/08/24 16:02:43;;;;;;;;;;;;;;;;;;5051015;28;19916;-81
2022/08/24 16:05:30;;;;;;;;;;;;;;;;;;5039714;28;19913;-80
2022/08/24 16:08:17;;;;;;;;;;;;;;;;;;5044878;28;19921;-79
2022/08/24 16:11:04;;;;;;;;;;;;;;;;;;5038360;28;20265;-84
2022/08/24 16:13:51;;;;;;;;;;;;;;;;;;5025643;28;20580;-81
2022/08/24 16:16:37;;;;;;;;;;;;;;;;;;5028242;28;19917;-81
2022/08/24 16:19:24;;;;;;;;;;;;;;;;;;5030718;28;19917;-82
2022/08/24 16:22:10;;;;;;;;;;;;;;;;;;5003789;28;20381;-81
2022/08/24 16:24:57;;;;;;;;;;;;;;;;;;5014454;28;20380;-80
2022/08/24 16:27:44;;;;;;;;;;;;;;;;;;5028698;28;19932;-80
2022/08/24 16:30:30;;;;;;;;;;;;;;;;;;5030983;28;19913;-81
2022/08/24 16:33:16;;;;;;;;;;;;;;;;;;5026971;28;19913;-81
2022/08/24 16:36:03;;;;;;;;;;;;;;;;;;5012552;28;19917;-79
2022/08/24 16:38:49;;;;;;;;;;;;;;;;;;5013656;28;19913;-80
2022/08/24 16:41:38;;;;;;;;;;;;;;;;;;5016725;28;19919;-81
2022/08/24 16:44:26;;;;;;;;;;;;;;;;;;5016089;28;19919;-81
2022/08/24 16:47:13;;;;;;;;;;;;;;;;;;5012061;28;19920;-81
2022/08/24 16:49:59;;;;;;;;;;;;;;;;;;5014805;28;19909;-81
2022/08/24 16:52:46;;;;;;;;;;;;;;;;;;5013380;28;19920;-80
2022/08/24 16:55:32;;;;;;;;;;;;;;;;;;5010731;28;19927;-80
2022/08/24 16:58:22;;;;;;;;;;;;;;;;;;5006447;28;19921;-80
2022/08/24 17:01:09;;;;;;;;;;;;;;;;;;5027676;28;19921;-80
2022/08/24 17:03:55;;;;;;;;;;;;;;;;;;5025660;28;19956;-81
2022/08/24 17:06:42;;;;;;;;;;;;;;;;;;5012301;28;20349;-80
2022/08/24 17:09:28;;;;;;;;;;;;;;;;;;5022715;28;19913;-80
2022/08/24 17:12:15;;;;;;;;;;;;;;;;;;5030181;28;19921;-79
2022/08/24 17:15:02;;;;;;;;;;;;;;;;;;5027385;28;20335;-82
2022/08/24 17:17:49;;;;;;;;;;;;;;;;;;5027128;28;19917;-80
2022/08/24 17:20:35;;;;;;;;;;;;;;;;;;5026563;28;19932;-80
2022/08/24 17:23:22;;;;;;;;;;;;;;;;;;5009894;28;19913;-81
2022/08/24 17:26:08;;;;;;;;;;;;;;;;;;5011466;28;19923;-81
2022/08/24 17:28:55;;;;;;;;;;;;;;;;;;5012201;28;20375;-83
2022/08/24 17:31:42;;;;;;;;;;;;;;;;;;5014215;28;19909;-84
2022/08/24 17:34:29;;;;;;;;;;;;;;;;;;5007142;28;19913;-87
2022/08/24 17:37:15;;;;;;;;;;;;;;;;;;5004689;28;19917;-87
2022/08/24 17:40:03;;;;;;;;;;;;;;;;;;5024186;28;19913;-88
2022/08/24 17:42:49;;;;;;;;;;;;;;;;;;5013008;28;19920;-88
2022/08/24 17:45:36;;;;;;;;;;;;;;;;;;5014123;28;19943;-87
2022/08/24 17:48:22;;;;;;;;;;;;;;;;;;5009095;28;19921;-85
2022/08/24 17:51:09;;;;;;;;;;;;;;;;;;5013686;28;19924;-86
2022/08/24 17:53:55;;;;;;;;;;;;;;;;;;5025485;28;20463;-85
2022/08/24 17:56:43;;;;;;;;;;;;;;;;;;5024984;28;19910;-88
2022/08/24 17:59:30;;;;;;;;;;;;;;;;;;5025352;28;19917;-85
2022/08/24 18:02:16;;;;;;;;;;;;;;;;;;5008415;28;19921;-84
2022/08/24 18:05:06;;;;;;;;;;;;;;;;;;5023434;28;19913;-83
2022/08/24 18:07:52;;;;;;;;;;;;;;;;;;5007709;28;19925;-86
2022/08/24 18:10:39;;;;;;;;;;;;;;;;;;5016621;28;20308;-89
2022/08/24 18:13:25;;;;;;;;;;;;;;;;;;5010290;28;19921;-87
2022/08/24 18:16:12;;;;;;;;;;;;;;;;;;5012144;28;19913;-85
2022/08/24 18:18:58;;;;;;;;;;;;;;;;;;5013158;28;19924;-85
2022/08/24 18:21:45;;;;;;;;;;;;;;;;;;5025635;28;19909;-88
2022/08/24 18:24:31;;;;;;;;;;;;;;;;;;5029791;28;19921;-87
2022/08/24 18:27:18;;;;;;;;;;;;;;;;;;5021544;28;19917;-86
2022/08/24 18:30:04;;;;;;;;;;;;;;;;;;5033030;28;19920;-87
2022/08/24 18:32:51;;;;;;;;;;;;;;;;;;5028269;28;19917;-81
2022/08/24 18:35:37;;;;;;;;;;;;;;;;;;5006595;28;19928;-82
2022/08/24 18:38:25;;;;;;;;;;;;;;;;;;5025382;28;19976;-80
2022/08/24 18:41:12;;;;;;;;;;;;;;;;;;5026388;28;19917;-80
2022/08/24 18:43:58;;;;;;;;;;;;;;;;;;5007386;28;20369;-81
2022/08/24 18:46:45;;;;;;;;;;;;;;;;;;5022418;28;19943;-81
2022/08/24 18:49:31;;;;;;;;;;;;;;;;;;5008548;28;19917;-80
2022/08/24 18:52:18;;;;;;;;;;;;;;;;;;5019403;28;19917;-79
2022/08/24 18:55:05;;;;;;;;;;;;;;;;;;5025372;28;19913;-81
2022/08/24 18:57:51;;;;;;;;;;;;;;;;;;5009699;28;19917;-81
2022/08/24 19:00:37;;;;;;;;;;;;;;;;;;5022305;28;19932;-80
2022/08/24 19:03:24;;;;;;;;;;;;;;;;;;5006491;28;20280;-80
2022/08/24 19:06:10;;;;;;;;;;;;;;;;;;5019165;28;19909;-79
2022/08/24 19:08:57;;;;;;;;;;;;;;;;;;5020627;28;19921;-79
2022/08/24 19:11:43;;;;;;;;;;;;;;;;;;5022855;28;19917;-79
2022/08/24 19:14:30;;;;;;;;;;;;;;;;;;5011800;28;19925;-80
2022/08/24 19:17:16;;;;;;;;;;;;;;;;;;5008270;28;19925;-80
2022/08/24 19:20:03;;;;;;;;;;;;;;;;;;5022652;28;19928;-81